sensor_id;sensor_type;location;lat;lon;timestamp;pressure;altitude;pressure_sealevel;temperature;humidity
967;BME280;56108;48.730;9.304;2023-08-06T00:01:43;96514.19;;;14.48;100.00
967;BME280;56108;48.730;9.304;2023-08-06T00:03:51;96520.97;;;14.42;100.00
967;BME280;56108;48.730;9.304;2023-08-06T00:05:59;96506.69;;;14.51;100.00
967;BME280;56108;48.730;9.304;2023-08-06T00:08:10;96508.97;;;14.46;100.00
967;BME280;56108;48.730;9.304;2023-08-06T00:10:18;96508.97;;;14.28;100.00
967;BME280;56108;48.730;9.304;2023-08-06T00:12:27;96508.69;;;14.31;100.00
967;BME280;56108;48.730;9.304;2023-08-06T00:14:35;96513.88;;;14.33;100.00
967;BME280;56108;48.730;9.304;2023-08-06T00:16:43;96508.41;;;14.17;100.00
967;BME280;56108;48.730;9.304;2023-08-06T00:18:52;96505.03;;;14.15;100.00
967;BME280;56108;48.730;9.304;2023-08-06T00:21:00;96509.31;;;14.07;100.00
967;BME280;56108;48.730;9.304;2023-08-06T00:23:11;96502.91;;;14.00;100.00
967;BME280;56108;48.730;9.304;2023-08-06T00:25:19;96503.91;;;13.99;100.00
967;BME280;56108;48.730;9.304;2023-08-06T00:27:27;96508.19;;;13.92;100.00
967;BME280;56108;48.730;9.304;2023-08-06T00:29:36;96508.41;;;13.99;100.00
967;BME280;56108;48.730;9.304;2023-08-06T00:31:44;96510.84;;;13.92;100.00
967;BME280;56108;48.730;9.304;2023-08-06T00:33:53;96503.47;;;13.86;100.00
967;BME280;56108;48.730;9.304;2023-08-06T00:36:01;96509.97;;;13.83;100.00
967;BME280;56108;48.730;9.304;2023-08-06T00:38:12;96507.88;;;13.77;100.00
967;BME280;56108;48.730;9.304;2023-08-06T00:40:21;96507.38;;;13.74;100.00
967;BME280;56108;48.730;9.304;2023-08-06T00:42:29;96503.59;;;13.67;100.00
967;BME280;56108;48.730;9.304;2023-08-06T00:44:38;96511.50;;;13.68;100.00
967;BME280;56108;48.730;9.304;2023-08-06T00:46:47;96505.53;;;13.74;100.00
967;BME280;56108;48.730;9.304;2023-08-06T00:48:55;96503.16;;;13.89;100.00
967;BME280;56108;48.730;9.304;2023-08-06T00:51:03;96502.22;;;13.98;100.00
967;BME280;56108;48.730;9.304;2023-08-06T00:53:16;96507.06;;;13.95;100.00
967;BME280;56108;48.730;9.304;2023-08-06T00:55:24;96516.00;;;13.86;100.00
967;BME280;56108;48.730;9.304;2023-08-06T00:57:33;96506.81;;;13.88;100.00
967;BME280;56108;48.730;9.304;2023-08-06T00:59:41;96513.31;;;13.86;100.00
967;BME280;56108;48.730;9.304;2023-08-06T01:01:50;96502.78;;;13.84;100.00
967;BME280;56108;48.730;9.304;2023-08-06T01:03:59;96505.06;;;13.79;100.00
967;BME280;56108;48.730;9.304;2023-08-06T01:06:07;96503.16;;;13.71;100.00
967;BME280;56108;48.730;9.304;2023-08-06T01:08:27;96502.84;;;13.56;100.00
967;BME280;56108;48.730;9.304;2023-08-06T01:10:48;96507.34;;;13.56;100.00
967;BME280;56108;48.730;9.304;2023-08-06T01:13:08;96499.72;;;13.43;100.00
967;BME280;56108;48.730;9.304;2023-08-06T01:15:19;96501.00;;;13.39;100.00
967;BME280;56108;48.730;9.304;2023-08-06T01:17:30;96495.41;;;13.32;100.00
967;BME280;56108;48.730;9.304;2023-08-06T01:19:38;96499.47;;;13.37;100.00
967;BME280;56108;48.730;9.304;2023-08-06T01:21:49;96497.25;;;13.32;100.00
967;BME280;56108;48.730;9.304;2023-08-06T01:23:58;96494.88;;;13.29;100.00
967;BME280;56108;48.730;9.304;2023-08-06T01:26:12;96496.88;;;13.27;100.00
967;BME280;56108;48.730;9.304;2023-08-06T01:28:27;96503.50;;;13.23;100.00
967;BME280;56108;48.730;9.304;2023-08-06T01:30:41;96500.22;;;13.29;100.00
967;BME280;56108;48.730;9.304;2023-08-06T01:32:50;96502.66;;;13.22;100.00
967;BME280;56108;48.730;9.304;2023-08-06T01:35:05;96496.47;;;13.22;100.00
967;BME280;56108;48.730;9.304;2023-08-06T01:37:17;96497.16;;;13.24;100.00
967;BME280;56108;48.730;9.304;2023-08-06T01:39:25;96492.66;;;13.24;100.00
967;BME280;56108;48.730;9.304;2023-08-06T01:41:33;96495.53;;;13.31;100.00
967;BME280;56108;48.730;9.304;2023-08-06T01:43:41;96492.34;;;13.27;100.00
967;BME280;56108;48.730;9.304;2023-08-06T01:45:50;96479.28;;;13.24;100.00
967;BME280;56108;48.730;9.304;2023-08-06T01:47:58;96481.84;;;13.26;100.00
967;BME280;56108;48.730;9.304;2023-08-06T01:50:07;96481.13;;;13.24;100.00
967;BME280;56108;48.730;9.304;2023-08-06T01:52:18;96486.47;;;13.24;100.00
967;BME280;56108;48.730;9.304;2023-08-06T01:54:26;96485.88;;;13.20;100.00
967;BME280;56108;48.730;9.304;2023-08-06T01:56:35;96484.09;;;13.21;100.00
967;BME280;56108;48.730;9.304;2023-08-06T01:58:43;96474.78;;;13.25;100.00
967;BME280;56108;48.730;9.304;2023-08-06T02:00:51;96480.53;;;13.20;100.00
967;BME280;56108;48.730;9.304;2023-08-06T02:03:01;96472.28;;;13.14;100.00
967;BME280;56108;48.730;9.304;2023-08-06T02:05:09;96466.88;;;13.05;100.00
967;BME280;56108;48.730;9.304;2023-08-06T02:07:20;96472.00;;;13.17;100.00
967;BME280;56108;48.730;9.304;2023-08-06T02:09:28;96473.56;;;13.10;100.00
967;BME280;56108;48.730;9.304;2023-08-06T02:11:37;96479.84;;;13.00;100.00
967;BME280;56108;48.730;9.304;2023-08-06T02:13:46;96475.78;;;12.96;100.00
967;BME280;56108;48.730;9.304;2023-08-06T02:15:56;96473.69;;;12.90;100.00
967;BME280;56108;48.730;9.304;2023-08-06T02:18:05;96472.41;;;12.94;100.00
967;BME280;56108;48.730;9.304;2023-08-06T02:20:13;96474.28;;;12.84;100.00
967;BME280;56108;48.730;9.304;2023-08-06T02:22:24;96473.59;;;12.82;100.00
967;BME280;56108;48.730;9.304;2023-08-06T02:24:32;96469.28;;;12.71;100.00
967;BME280;56108;48.730;9.304;2023-08-06T02:26:41;96476.06;;;12.66;100.00
967;BME280;56108;48.730;9.304;2023-08-06T02:28:50;96475.81;;;12.59;100.00
967;BME280;56108;48.730;9.304;2023-08-06T02:30:58;96476.41;;;12.53;100.00
967;BME280;56108;48.730;9.304;2023-08-06T02:33:07;96476.28;;;12.45;100.00
967;BME280;56108;48.730;9.304;2023-08-06T02:35:15;96475.72;;;12.41;100.00
967;BME280;56108;48.730;9.304;2023-08-06T02:37:26;96476.44;;;12.34;100.00
967;BME280;56108;48.730;9.304;2023-08-06T02:39:34;96468.72;;;12.31;100.00
967;BME280;56108;48.730;9.304;2023-08-06T02:41:45;96464.38;;;12.30;100.00
967;BME280;56108;48.730;9.304;2023-08-06T02:43:53;96452.88;;;12.29;100.00
967;BME280;56108;48.730;9.304;2023-08-06T02:46:01;96452.19;;;12.27;100.00
967;BME280;56108;48.730;9.304;2023-08-06T02:48:11;96444.63;;;12.22;100.00
967;BME280;56108;48.730;9.304;2023-08-06T02:50:19;96454.44;;;12.22;100.00
967;BME280;56108;48.730;9.304;2023-08-06T02:52:30;96446.16;;;12.15;100.00
967;BME280;56108;48.730;9.304;2023-08-06T02:54:39;96445.63;;;12.12;100.00
967;BME280;56108;48.730;9.304;2023-08-06T02:56:49;96442.53;;;12.16;100.00
967;BME280;56108;48.730;9.304;2023-08-06T02:59:08;96444.66;;;12.13;100.00
967;BME280;56108;48.730;9.304;2023-08-06T03:01:33;96439.47;;;12.11;100.00
967;BME280;56108;48.730;9.304;2023-08-06T03:03:50;96438.34;;;12.04;100.00
967;BME280;56108;48.730;9.304;2023-08-06T03:06:05;96440.84;;;12.06;100.00
967;BME280;56108;48.730;9.304;2023-08-06T03:08:23;96437.94;;;11.99;100.00
967;BME280;56108;48.730;9.304;2023-08-06T03:10:32;96437.50;;;11.94;100.00
967;BME280;56108;48.730;9.304;2023-08-06T03:12:42;96431.06;;;11.96;100.00
967;BME280;56108;48.730;9.304;2023-08-06T03:14:51;96430.78;;;11.90;100.00
967;BME280;56108;48.730;9.304;2023-08-06T03:16:59;96429.94;;;11.89;100.00
967;BME280;56108;48.730;9.304;2023-08-06T03:19:07;96417.19;;;11.93;100.00
967;BME280;56108;48.730;9.304;2023-08-06T03:21:16;96418.84;;;12.04;100.00
967;BME280;56108;48.730;9.304;2023-08-06T03:23:27;96424.00;;;12.05;100.00
967;BME280;56108;48.730;9.304;2023-08-06T03:25:35;96415.59;;;12.10;100.00
967;BME280;56108;48.730;9.304;2023-08-06T03:27:44;96416.97;;;12.14;100.00
967;BME280;56108;48.730;9.304;2023-08-06T03:29:55;96414.44;;;12.22;100.00
967;BME280;56108;48.730;9.304;2023-08-06T03:32:07;96418.91;;;12.21;100.00
967;BME280;56108;48.730;9.304;2023-08-06T03:34:17;96422.97;;;12.25;100.00
967;BME280;56108;48.730;9.304;2023-08-06T03:36:27;96422.97;;;12.25;100.00
967;BME280;56108;48.730;9.304;2023-08-06T03:38:38;96424.53;;;12.28;100.00
967;BME280;56108;48.730;9.304;2023-08-06T03:40:49;96429.44;;;12.33;100.00
967;BME280;56108;48.730;9.304;2023-08-06T03:42:57;96437.13;;;12.36;100.00
967;BME280;56108;48.730;9.304;2023-08-06T03:45:07;96442.59;;;12.34;100.00
967;BME280;56108;48.730;9.304;2023-08-06T03:47:17;96448.50;;;12.38;100.00
967;BME280;56108;48.730;9.304;2023-08-06T03:49:28;96463.53;;;12.39;100.00
967;BME280;56108;48.730;9.304;2023-08-06T03:51:37;96466.44;;;12.45;100.00
967;BME280;56108;48.730;9.304;2023-08-06T03:53:48;96484.28;;;12.45;100.00
967;BME280;56108;48.730;9.304;2023-08-06T03:55:57;96479.31;;;12.60;100.00
967;BME280;56108;48.730;9.304;2023-08-06T03:58:07;96479.16;;;12.61;100.00
967;BME280;56108;48.730;9.304;2023-08-06T04:00:16;96480.03;;;12.52;100.00
967;BME280;56108;48.730;9.304;2023-08-06T04:02:30;96481.34;;;12.48;100.00
967;BME280;56108;48.730;9.304;2023-08-06T04:04:38;96478.78;;;12.46;100.00
967;BME280;56108;48.730;9.304;2023-08-06T04:06:47;96473.84;;;12.51;100.00
967;BME280;56108;48.730;9.304;2023-08-06T04:08:57;96478.59;;;12.58;100.00
967;BME280;56108;48.730;9.304;2023-08-06T04:11:06;96474.66;;;12.62;100.00
967;BME280;56108;48.730;9.304;2023-08-06T04:13:14;96495.03;;;12.63;100.00
967;BME280;56108;48.730;9.304;2023-08-06T04:15:22;96494.06;;;12.64;100.00
967;BME280;56108;48.730;9.304;2023-08-06T04:17:31;96499.81;;;12.69;100.00
967;BME280;56108;48.730;9.304;2023-08-06T04:19:39;96506.66;;;12.71;100.00
967;BME280;56108;48.730;9.304;2023-08-06T04:21:47;96504.00;;;12.71;100.00
967;BME280;56108;48.730;9.304;2023-08-06T04:23:59;96504.53;;;12.75;100.00
967;BME280;56108;48.730;9.304;2023-08-06T04:26:07;96503.13;;;12.80;100.00
967;BME280;56108;48.730;9.304;2023-08-06T04:28:15;96499.69;;;12.88;100.00
967;BME280;56108;48.730;9.304;2023-08-06T04:30:24;96510.38;;;12.88;100.00
967;BME280;56108;48.730;9.304;2023-08-06T04:32:32;96518.50;;;12.96;100.00
967;BME280;56108;48.730;9.304;2023-08-06T04:34:41;96518.94;;;12.92;100.00
967;BME280;56108;48.730;9.304;2023-08-06T04:36:49;96522.00;;;12.97;100.00
967;BME280;56108;48.730;9.304;2023-08-06T04:38:57;96527.06;;;13.00;100.00
967;BME280;56108;48.730;9.304;2023-08-06T04:41:06;96539.06;;;13.23;100.00
967;BME280;56108;48.730;9.304;2023-08-06T04:43:14;96558.88;;;13.21;100.00
967;BME280;56108;48.730;9.304;2023-08-06T04:45:23;96558.16;;;13.19;100.00
967;BME280;56108;48.730;9.304;2023-08-06T04:47:32;96557.34;;;13.18;100.00
967;BME280;56108;48.730;9.304;2023-08-06T04:49:40;96564.94;;;13.13;100.00
967;BME280;56108;48.730;9.304;2023-08-06T04:51:48;96561.56;;;13.21;100.00
967;BME280;56108;48.730;9.304;2023-08-06T04:54:00;96557.47;;;13.26;100.00
967;BME280;56108;48.730;9.304;2023-08-06T04:56:08;96564.56;;;13.36;100.00
967;BME280;56108;48.730;9.304;2023-08-06T04:58:16;96559.22;;;13.36;100.00
967;BME280;56108;48.730;9.304;2023-08-06T05:00:24;96565.13;;;13.39;100.00
967;BME280;56108;48.730;9.304;2023-08-06T05:02:30;96569.19;;;13.43;100.00
967;BME280;56108;48.730;9.304;2023-08-06T05:04:40;96574.97;;;13.39;100.00
967;BME280;56108;48.730;9.304;2023-08-06T05:06:48;96572.16;;;13.40;100.00
967;BME280;56108;48.730;9.304;2023-08-06T05:08:59;96577.38;;;13.42;100.00
967;BME280;56108;48.730;9.304;2023-08-06T05:11:04;96579.88;;;13.43;100.00
967;BME280;56108;48.730;9.304;2023-08-06T05:13:13;96580.56;;;13.45;100.00
967;BME280;56108;48.730;9.304;2023-08-06T05:15:21;96581.13;;;13.49;100.00
967;BME280;56108;48.730;9.304;2023-08-06T05:17:30;96588.97;;;13.50;100.00
967;BME280;56108;48.730;9.304;2023-08-06T05:19:36;96587.16;;;13.51;100.00
967;BME280;56108;48.730;9.304;2023-08-06T05:21:44;96584.63;;;13.49;100.00
967;BME280;56108;48.730;9.304;2023-08-06T05:23:52;96586.94;;;13.62;100.00
967;BME280;56108;48.730;9.304;2023-08-06T05:26:03;96597.50;;;13.64;100.00
967;BME280;56108;48.730;9.304;2023-08-06T05:28:12;96606.31;;;13.74;100.00
967;BME280;56108;48.730;9.304;2023-08-06T05:30:21;96618.06;;;13.81;100.00
967;BME280;56108;48.730;9.304;2023-08-06T05:32:29;96628.94;;;13.79;100.00
967;BME280;56108;48.730;9.304;2023-08-06T05:34:37;96627.50;;;13.57;100.00
967;BME280;56108;48.730;9.304;2023-08-06T05:36:46;96621.50;;;13.73;100.00
967;BME280;56108;48.730;9.304;2023-08-06T05:38:54;96623.00;;;13.58;100.00
967;BME280;56108;48.730;9.304;2023-08-06T05:41:05;96618.22;;;13.52;100.00
967;BME280;56108;48.730;9.304;2023-08-06T05:43:13;96623.19;;;13.74;100.00
967;BME280;56108;48.730;9.304;2023-08-06T05:45:19;96634.91;;;14.09;100.00
967;BME280;56108;48.730;9.304;2023-08-06T05:47:27;96645.88;;;15.21;100.00
967;BME280;56108;48.730;9.304;2023-08-06T05:49:36;96680.63;;;16.90;100.00
967;BME280;56108;48.730;9.304;2023-08-06T05:51:44;96683.75;;;17.51;100.00
967;BME280;56108;48.730;9.304;2023-08-06T05:53:53;96673.81;;;17.60;100.00
967;BME280;56108;48.730;9.304;2023-08-06T05:56:01;96695.41;;;18.30;100.00
967;BME280;56108;48.730;9.304;2023-08-06T05:58:12;96697.94;;;17.92;100.00
967;BME280;56108;48.730;9.304;2023-08-06T06:00:21;96695.91;;;17.14;100.00
967;BME280;56108;48.730;9.304;2023-08-06T06:02:30;96699.75;;;16.63;100.00
967;BME280;56108;48.730;9.304;2023-08-06T06:04:38;96694.97;;;16.32;100.00
967;BME280;56108;48.730;9.304;2023-08-06T06:06:47;96703.06;;;15.90;100.00
967;BME280;56108;48.730;9.304;2023-08-06T06:08:55;96698.47;;;15.74;100.00
967;BME280;56108;48.730;9.304;2023-08-06T06:11:04;96686.63;;;15.59;100.00
967;BME280;56108;48.730;9.304;2023-08-06T06:13:15;96693.94;;;15.40;100.00
967;BME280;56108;48.730;9.304;2023-08-06T06:15:23;96703.91;;;15.30;100.00
967;BME280;56108;48.730;9.304;2023-08-06T06:17:31;96695.03;;;15.30;100.00
967;BME280;56108;48.730;9.304;2023-08-06T06:19:40;96703.31;;;15.19;100.00
967;BME280;56108;48.730;9.304;2023-08-06T06:21:49;96703.06;;;15.30;100.00
967;BME280;56108;48.730;9.304;2023-08-06T06:24:00;96692.19;;;15.31;100.00
967;BME280;56108;48.730;9.304;2023-08-06T06:26:09;96695.22;;;15.36;100.00
967;BME280;56108;48.730;9.304;2023-08-06T06:28:21;96691.69;;;15.62;100.00
967;BME280;56108;48.730;9.304;2023-08-06T06:30:29;96700.88;;;15.59;100.00
967;BME280;56108;48.730;9.304;2023-08-06T06:32:38;96696.16;;;15.53;100.00
967;BME280;56108;48.730;9.304;2023-08-06T06:34:46;96708.94;;;15.33;100.00
967;BME280;56108;48.730;9.304;2023-08-06T06:36:54;96708.47;;;15.12;100.00
967;BME280;56108;48.730;9.304;2023-08-06T06:39:03;96711.56;;;14.99;100.00
967;BME280;56108;48.730;9.304;2023-08-06T06:41:11;96702.53;;;15.00;100.00
967;BME280;56108;48.730;9.304;2023-08-06T06:43:23;96717.00;;;14.90;100.00
967;BME280;56108;48.730;9.304;2023-08-06T06:45:32;96706.53;;;14.78;100.00
967;BME280;56108;48.730;9.304;2023-08-06T06:47:40;96719.53;;;14.91;100.00
967;BME280;56108;48.730;9.304;2023-08-06T06:49:48;96714.91;;;15.01;100.00
967;BME280;56108;48.730;9.304;2023-08-06T06:52:00;96723.25;;;15.16;100.00
967;BME280;56108;48.730;9.304;2023-08-06T06:54:06;96714.03;;;15.45;100.00
967;BME280;56108;48.730;9.304;2023-08-06T06:56:16;96719.16;;;15.56;100.00
967;BME280;56108;48.730;9.304;2023-08-06T06:58:27;96722.09;;;15.71;100.00
967;BME280;56108;48.730;9.304;2023-08-06T07:00:36;96719.34;;;15.62;100.00
967;BME280;56108;48.730;9.304;2023-08-06T07:02:46;96725.28;;;15.48;100.00
967;BME280;56108;48.730;9.304;2023-08-06T07:04:58;96720.13;;;15.29;100.00
967;BME280;56108;48.730;9.304;2023-08-06T07:07:08;96713.16;;;15.36;100.00
967;BME280;56108;48.730;9.304;2023-08-06T07:09:16;96723.53;;;15.31;100.00
967;BME280;56108;48.730;9.304;2023-08-06T07:11:24;96722.78;;;15.21;100.00
967;BME280;56108;48.730;9.304;2023-08-06T07:13:35;96712.88;;;14.95;100.00
967;BME280;56108;48.730;9.304;2023-08-06T07:15:43;96710.56;;;15.00;100.00
967;BME280;56108;48.730;9.304;2023-08-06T07:17:51;96706.88;;;15.01;100.00
967;BME280;56108;48.730;9.304;2023-08-06T07:19:59;96704.47;;;15.16;100.00
967;BME280;56108;48.730;9.304;2023-08-06T07:22:07;96719.63;;;15.25;100.00
967;BME280;56108;48.730;9.304;2023-08-06T07:24:15;96706.72;;;15.29;100.00
967;BME280;56108;48.730;9.304;2023-08-06T07:26:24;96712.19;;;15.45;100.00
967;BME280;56108;48.730;9.304;2023-08-06T07:28:35;96710.47;;;15.10;100.00
967;BME280;56108;48.730;9.304;2023-08-06T07:30:44;96709.19;;;14.96;100.00
967;BME280;56108;48.730;9.304;2023-08-06T07:32:52;96708.53;;;14.58;100.00
967;BME280;56108;48.730;9.304;2023-08-06T07:35:00;96704.56;;;14.63;100.00
967;BME280;56108;48.730;9.304;2023-08-06T07:37:09;96698.97;;;14.74;100.00
967;BME280;56108;48.730;9.304;2023-08-06T07:39:17;96699.19;;;14.80;100.00
967;BME280;56108;48.730;9.304;2023-08-06T07:41:25;96705.31;;;14.73;100.00
967;BME280;56108;48.730;9.304;2023-08-06T07:43:47;96696.28;;;14.74;100.00
967;BME280;56108;48.730;9.304;2023-08-06T07:45:57;96703.03;;;14.78;100.00
967;BME280;56108;48.730;9.304;2023-08-06T07:48:08;96703.16;;;14.94;100.00
967;BME280;56108;48.730;9.304;2023-08-06T07:50:16;96701.94;;;14.88;100.00
967;BME280;56108;48.730;9.304;2023-08-06T07:52:24;96701.22;;;14.86;100.00
967;BME280;56108;48.730;9.304;2023-08-06T07:54:32;96707.28;;;14.88;100.00
967;BME280;56108;48.730;9.304;2023-08-06T07:56:40;96718.53;;;14.92;100.00
967;BME280;56108;48.730;9.304;2023-08-06T07:58:51;96724.63;;;15.20;100.00
967;BME280;56108;48.730;9.304;2023-08-06T08:00:59;96724.75;;;15.45;100.00
967;BME280;56108;48.730;9.304;2023-08-06T08:03:09;96727.47;;;16.13;100.00
967;BME280;56108;48.730;9.304;2023-08-06T08:05:18;96739.03;;;16.05;100.00
967;BME280;56108;48.730;9.304;2023-08-06T08:07:26;96742.44;;;16.15;100.00
967;BME280;56108;48.730;9.304;2023-08-06T08:09:35;96734.56;;;16.22;100.00
967;BME280;56108;48.730;9.304;2023-08-06T08:11:44;96743.91;;;16.60;100.00
967;BME280;56108;48.730;9.304;2023-08-06T08:13:54;96746.59;;;16.68;100.00
967;BME280;56108;48.730;9.304;2023-08-06T08:16:03;96757.25;;;16.86;100.00
967;BME280;56108;48.730;9.304;2023-08-06T08:18:12;96743.13;;;17.09;100.00
967;BME280;56108;48.730;9.304;2023-08-06T08:20:20;96745.47;;;16.95;100.00
967;BME280;56108;48.730;9.304;2023-08-06T08:22:28;96736.56;;;16.79;100.00
967;BME280;56108;48.730;9.304;2023-08-06T08:24:37;96735.06;;;17.09;100.00
967;BME280;56108;48.730;9.304;2023-08-06T08:26:44;96743.31;;;17.24;100.00
967;BME280;56108;48.730;9.304;2023-08-06T08:28:56;96734.69;;;17.61;100.00
967;BME280;56108;48.730;9.304;2023-08-06T08:31:08;96742.09;;;17.42;100.00
967;BME280;56108;48.730;9.304;2023-08-06T08:33:16;96733.22;;;16.85;100.00
967;BME280;56108;48.730;9.304;2023-08-06T08:35:24;96737.25;;;16.89;100.00
967;BME280;56108;48.730;9.304;2023-08-06T08:37:32;96743.38;;;16.65;100.00
967;BME280;56108;48.730;9.304;2023-08-06T08:39:38;96730.19;;;16.21;100.00
967;BME280;56108;48.730;9.304;2023-08-06T08:41:46;96741.16;;;16.44;100.00
967;BME280;56108;48.730;9.304;2023-08-06T08:44:00;96735.59;;;16.29;100.00
967;BME280;56108;48.730;9.304;2023-08-06T08:46:10;96744.81;;;16.18;100.00
967;BME280;56108;48.730;9.304;2023-08-06T08:48:21;96751.28;;;16.50;100.00
967;BME280;56108;48.730;9.304;2023-08-06T08:50:29;96737.50;;;16.45;100.00
967;BME280;56108;48.730;9.304;2023-08-06T08:52:38;96740.88;;;16.55;100.00
967;BME280;56108;48.730;9.304;2023-08-06T08:54:49;96741.50;;;16.41;100.00
967;BME280;56108;48.730;9.304;2023-08-06T08:56:58;96740.81;;;16.39;100.00
967;BME280;56108;48.730;9.304;2023-08-06T08:59:09;96746.59;;;16.60;100.00
967;BME280;56108;48.730;9.304;2023-08-06T09:01:19;96755.06;;;16.31;100.00
967;BME280;56108;48.730;9.304;2023-08-06T09:03:30;96745.59;;;16.61;100.00
967;BME280;56108;48.730;9.304;2023-08-06T09:05:43;96749.28;;;16.60;100.00
967;BME280;56108;48.730;9.304;2023-08-06T09:07:54;96755.19;;;16.80;100.00
967;BME280;56108;48.730;9.304;2023-08-06T09:10:04;96758.75;;;16.89;100.00
967;BME280;56108;48.730;9.304;2023-08-06T09:12:15;96763.47;;;17.03;100.00
967;BME280;56108;48.730;9.304;2023-08-06T09:14:26;96759.94;;;17.11;100.00
967;BME280;56108;48.730;9.304;2023-08-06T09:16:34;96762.13;;;17.07;100.00
967;BME280;56108;48.730;9.304;2023-08-06T09:18:44;96759.78;;;17.04;100.00
967;BME280;56108;48.730;9.304;2023-08-06T09:20:52;96760.78;;;16.87;100.00
967;BME280;56108;48.730;9.304;2023-08-06T09:22:59;96766.16;;;17.03;100.00
967;BME280;56108;48.730;9.304;2023-08-06T09:25:21;96764.28;;;16.79;100.00
967;BME280;56108;48.730;9.304;2023-08-06T09:27:30;96758.75;;;16.89;100.00
967;BME280;56108;48.730;9.304;2023-08-06T09:29:43;96758.91;;;16.79;100.00
967;BME280;56108;48.730;9.304;2023-08-06T09:31:51;96760.41;;;16.74;100.00
967;BME280;56108;48.730;9.304;2023-08-06T09:34:10;96758.28;;;16.43;100.00
967;BME280;56108;48.730;9.304;2023-08-06T09:36:18;96761.31;;;16.48;100.00
967;BME280;56108;48.730;9.304;2023-08-06T09:38:37;96757.13;;;16.46;100.00
967;BME280;56108;48.730;9.304;2023-08-06T09:40:47;96761.66;;;16.53;100.00
967;BME280;56108;48.730;9.304;2023-08-06T09:42:55;96754.97;;;16.57;100.00
967;BME280;56108;48.730;9.304;2023-08-06T09:45:10;96751.56;;;16.39;100.00
967;BME280;56108;48.730;9.304;2023-08-06T09:47:24;96756.78;;;16.40;100.00
967;BME280;56108;48.730;9.304;2023-08-06T09:49:44;96751.03;;;16.27;100.00
967;BME280;56108;48.730;9.304;2023-08-06T09:51:54;96749.66;;;16.23;100.00
967;BME280;56108;48.730;9.304;2023-08-06T09:54:04;96759.25;;;16.26;100.00
967;BME280;56108;48.730;9.304;2023-08-06T09:56:29;96754.09;;;16.40;100.00
967;BME280;56108;48.730;9.304;2023-08-06T09:58:42;96759.47;;;16.49;100.00
967;BME280;56108;48.730;9.304;2023-08-06T10:00:57;96763.00;;;16.49;100.00
967;BME280;56108;48.730;9.304;2023-08-06T10:03:09;96763.81;;;16.41;100.00
967;BME280;56108;48.730;9.304;2023-08-06T10:05:25;96765.84;;;16.39;100.00
967;BME280;56108;48.730;9.304;2023-08-06T10:07:35;96760.66;;;16.54;100.00
967;BME280;56108;48.730;9.304;2023-08-06T10:09:44;96767.31;;;16.84;100.00
967;BME280;56108;48.730;9.304;2023-08-06T10:11:52;96766.97;;;16.95;100.00
967;BME280;56108;48.730;9.304;2023-08-06T10:14:06;96766.50;;;17.08;100.00
967;BME280;56108;48.730;9.304;2023-08-06T10:16:19;96775.38;;;17.01;100.00
967;BME280;56108;48.730;9.304;2023-08-06T10:18:29;96768.28;;;16.75;100.00
967;BME280;56108;48.730;9.304;2023-08-06T10:20:37;96762.50;;;16.54;100.00
967;BME280;56108;48.730;9.304;2023-08-06T10:23:01;96762.50;;;16.46;100.00
967;BME280;56108;48.730;9.304;2023-08-06T10:25:10;96760.47;;;16.48;100.00
967;BME280;56108;48.730;9.304;2023-08-06T10:27:23;96762.63;;;16.44;100.00
967;BME280;56108;48.730;9.304;2023-08-06T10:29:36;96772.59;;;16.52;100.00
967;BME280;56108;48.730;9.304;2023-08-06T10:31:59;96765.00;;;16.47;100.00
967;BME280;56108;48.730;9.304;2023-08-06T10:34:07;96766.69;;;16.40;100.00
967;BME280;56108;48.730;9.304;2023-08-06T10:36:16;96764.44;;;16.19;100.00
967;BME280;56108;48.730;9.304;2023-08-06T10:38:25;96765.81;;;15.97;100.00
967;BME280;56108;48.730;9.304;2023-08-06T10:40:38;96772.94;;;16.65;100.00
967;BME280;56108;48.730;9.304;2023-08-06T10:42:44;96778.94;;;17.26;100.00
967;BME280;56108;48.730;9.304;2023-08-06T10:45:14;96797.41;;;17.45;100.00
967;BME280;56108;48.730;9.304;2023-08-06T10:47:28;96804.13;;;17.65;100.00
967;BME280;56108;48.730;9.304;2023-08-06T10:49:37;96804.47;;;17.54;100.00
967;BME280;56108;48.730;9.304;2023-08-06T10:51:46;96800.44;;;17.26;100.00
967;BME280;56108;48.730;9.304;2023-08-06T10:53:54;96814.22;;;17.14;100.00
967;BME280;56108;48.730;9.304;2023-08-06T10:56:12;96797.63;;;16.68;100.00
967;BME280;56108;48.730;9.304;2023-08-06T10:58:20;96791.22;;;16.53;100.00
967;BME280;56108;48.730;9.304;2023-08-06T11:00:34;96796.63;;;16.61;100.00
967;BME280;56108;48.730;9.304;2023-08-06T11:02:46;96804.06;;;16.76;100.00
967;BME280;56108;48.730;9.304;2023-08-06T11:04:56;96798.66;;;16.67;100.00
967;BME280;56108;48.730;9.304;2023-08-06T11:07:06;96799.97;;;16.63;100.00
967;BME280;56108;48.730;9.304;2023-08-06T11:09:15;96802.09;;;16.43;100.00
967;BME280;56108;48.730;9.304;2023-08-06T11:11:23;96813.72;;;16.52;100.00
967;BME280;56108;48.730;9.304;2023-08-06T11:13:32;96808.47;;;16.42;100.00
967;BME280;56108;48.730;9.304;2023-08-06T11:15:40;96811.19;;;16.51;100.00
967;BME280;56108;48.730;9.304;2023-08-06T11:17:50;96810.22;;;15.91;100.00
967;BME280;56108;48.730;9.304;2023-08-06T11:19:59;96809.09;;;15.94;100.00
967;BME280;56108;48.730;9.304;2023-08-06T11:22:05;96803.91;;;16.01;100.00
967;BME280;56108;48.730;9.304;2023-08-06T11:24:13;96807.06;;;15.96;100.00
967;BME280;56108;48.730;9.304;2023-08-06T11:26:22;96815.22;;;15.78;100.00
967;BME280;56108;48.730;9.304;2023-08-06T11:28:32;96809.16;;;15.58;100.00
967;BME280;56108;48.730;9.304;2023-08-06T11:30:40;96815.06;;;15.62;100.00
967;BME280;56108;48.730;9.304;2023-08-06T11:32:51;96831.28;;;15.60;100.00
967;BME280;56108;48.730;9.304;2023-08-06T11:35:09;96830.50;;;15.42;100.00
967;BME280;56108;48.730;9.304;2023-08-06T11:37:21;96832.50;;;15.22;100.00